Latest Weather Observations for Mornington Island Airport

IDQ60801

Issued at 9:35 am EST Wednesday 23 July 2014 (issued every 30 minutes, with the page automatically refreshed every 10 minutes)

About weather observations | Map of weather stations | Latest weather observations for QLD | Other Formats
Station Details ID: 029182 Name: MORNINGTON ISLAND AIRPORT Lat: -16.66 Lon: 139.17 Height: 9.0 m
Data from the previous 72 hours. | See also: Recent months for locations in Queensland
Date/Time
EST
Temp
°C
App
Temp
°C
Dew
Point
Rel
Hum
%
Delta-T
°C
Wind Press
QNH
hPa
Press
MSL
hPa
Rain
since 9 am
mm
Dir
 
Spd
km/h
Gust
km/h
Spd
kts
Gust
kts
23/09:30am 22.2 22.2 14.1 60 4.7 E 7 11 4 6 1017.7 - 0.0
23/09:00am 19.7 19.5 15.6 77 2.4 ENE 11 17 6 9 1017.9 1017.8 0.0
23/08:30am 17.5 17.0 15.0 85 1.5 NNE 11 17 6 9 1017.6 - 0.0
23/08:00am 16.2 16.0 13.7 85 1.4 N 7 11 4 6 1016.5 1016.4 0.0
23/07:30am 14.4 13.5 12.6 89 1.0 S 9 11 5 6 1015.8 - 0.0
23/07:00am 14.0 13.0 12.2 89 1.0 S 9 11 5 6 1015.5 1015.4 0.0
23/06:30am 15.0 14.9 13.4 90 0.9 SSE 6 9 3 5 1015.3 - 0.0
23/06:00am 15.8 15.5 14.3 91 0.9 S 9 13 5 7 1014.9 1014.8 0.0
23/05:30am 16.2 16.4 14.6 90 0.9 SSW 7 11 4 6 1014.8 - 0.0
23/05:00am 17.0 17.1 15.5 91 0.9 SSW 9 13 5 7 1014.7 1014.6 0.0
23/04:30am 17.4 17.8 16.3 93 0.7 SSW 9 13 5 7 1014.6 - 0.0
23/04:00am 17.5 18.3 16.4 93 0.7 SW 7 9 4 5 1014.8 1014.7 0.0
23/03:30am 13.5 12.6 11.2 86 1.2 WSW 7 11 4 6 1014.9 - 0.0
23/03:00am 13.7 12.9 11.7 88 1.1 SW 7 9 4 5 1014.9 1014.8 0.0
23/02:30am 13.6 12.9 11.3 86 1.2 WSW 6 7 3 4 1014.8 - 0.0
23/02:00am 14.0 13.4 11.7 86 1.2 WNW 6 7 3 4 1014.9 1014.8 0.0
23/01:30am 14.6 14.1 11.9 84 1.5 NNW 6 6 3 3 1015.1 - 0.0
23/01:00am 16.8 16.9 15.5 92 0.8 N 9 9 5 5 1015.2 1015.1 0.0
23/12:30am 16.3 16.5 14.8 91 0.9 N 7 9 4 5 1015.4 - 0.0
23/12:00am 15.6 15.5 13.8 89 1.0 N 7 9 4 5 1015.6 1015.5 0.0
 
Date/Time
EST
Temp
°C
App
Temp
°C
Dew
Point
Rel
Hum
%
Delta-T
°C
Wind Press
QNH
hPa
Press
MSL
hPa
Rain
since 9 am
mm
Dir
 
Spd
km/h
Gust
km/h
Spd
kts
Gust
kts
22/11:30pm 15.9 15.9 14.1 89 1.0 N 7 9 4 5 1015.7 - 0.0
22/11:00pm 15.7 15.9 14.1 90 0.9 N 6 7 3 4 1015.8 1015.7 0.0
22/10:30pm 15.2 14.4 12.9 86 1.3 NNE 9 9 5 5 1016.0 - 0.0
22/10:00pm 15.5 14.7 12.8 84 1.5 NNE 9 11 5 6 1015.9 1015.8 0.0
22/09:30pm 15.6 14.3 12.4 81 1.8 NNE 11 13 6 7 1015.9 - 0.0
22/09:00pm 15.8 15.2 12.2 79 2.0 NE 7 11 4 6 1015.8 1015.7 0.0
22/08:30pm 16.3 15.8 12.5 78 2.1 NNE 7 9 4 5 1015.8 - 0.0
22/08:00pm 17.1 16.6 12.6 75 2.5 NNE 7 11 4 6 1015.6 1015.5 0.0
22/07:30pm 18.0 16.6 12.2 69 3.2 NNE 11 13 6 7 1015.4 - 0.0
22/07:00pm 18.7 17.5 12.9 69 3.3 ENE 11 15 6 8 1015.2 1015.1 0.0
22/06:30pm 20.2 19.6 12.4 61 4.4 NE 7 11 4 6 1015.1 - 0.0
22/06:00pm 21.5 20.2 11.2 52 5.7 SSE 9 11 5 6 1014.9 1014.8 0.0
22/05:30pm 22.5 20.7 9.6 44 7.0 SSE 9 13 5 7 1014.9 - 0.0
22/05:00pm 22.4 20.8 10.2 46 6.7 SE 9 13 5 7 1014.9 1014.8 0.0
22/04:30pm 23.3 20.8 9.7 42 7.4 SE 13 17 7 9 1014.8 - 0.0
22/04:00pm 23.1 20.7 10.2 44 7.1 SSE 13 20 7 11 1014.9 1014.8 0.0
22/03:30pm 23.3 20.3 7.8 37 8.1 SSE 13 20 7 11 1015.0 - 0.0
22/03:00pm 23.6 20.8 8.5 38 8.0 SE 13 17 7 9 1015.3 1015.2 0.0
22/02:30pm 24.0 21.7 10.3 42 7.6 SE 13 19 7 10 1015.7 - 0.0
22/02:00pm 23.3 20.6 9.0 40 7.7 SE 13 19 7 10 1016.1 1016.0 0.0
22/01:30pm 23.2 20.9 10.3 44 7.1 SSE 13 19 7 10 1016.5 - 0.0
22/01:00pm 22.9 20.6 10.3 45 6.9 SSE 13 19 7 10 1017.1 1017.0 0.0
22/12:30pm 22.8 20.6 10.9 47 6.6 SSE 13 20 7 11 1017.7 - 0.0
22/12:00pm 22.4 18.6 9.2 43 7.1 SE 19 28 10 15 1018.1 1018.0 0.0
22/11:30am 22.9 19.3 8.2 39 7.8 SE 17 26 9 14 1018.8 - 0.0
22/11:00am 22.5 18.7 7.5 38 7.8 SE 17 24 9 13 1018.9 1018.9 0.0
22/10:30am 22.2 18.5 8.0 40 7.4 SE 17 30 9 16 1019.2 - 0.0
22/10:00am 21.3 17.4 7.2 40 7.2 SE 17 24 9 13 1019.2 1019.2 0.0
22/09:30am 20.2 18.0 10.9 55 5.1 SE 13 20 7 11 1019.2 - 0.0
22/09:00am 18.9 17.7 12.9 68 3.4 SSE 11 17 6 9 1018.9 1018.9 0.2
22/08:30am 16.7 16.1 13.6 82 1.7 SSE 9 13 5 7 1018.7 - 0.2
22/08:00am 16.1 16.4 14.5 90 0.9 SSE 6 9 3 5 1018.5 1018.5 0.2
22/07:30am 15.4 15.4 14.3 93 0.6 SSE 7 9 4 5 1018.2 - 0.2
22/07:00am 16.0 16.5 14.9 93 0.6 SE 6 7 3 4 1018.0 1017.9 0.0
22/06:30am 15.4 15.6 14.3 93 0.6 S 6 9 3 5 1017.8 - 0.0
22/06:00am 14.9 16.1 13.8 93 0.6 CALM 0 7 0 4 1017.4 1017.3 0.0
22/05:30am 14.6 14.4 13.5 93 0.6 S 7 9 4 5 1017.4 - 0.0
22/05:00am 14.3 14.1 13.0 92 0.7 S 6 11 3 6 1017.3 1017.2 0.0
22/04:30am 14.8 14.8 13.5 92 0.7 S 6 7 3 4 1017.3 - 0.0
22/04:00am 15.1 15.2 13.8 92 0.7 S 6 9 3 5 1017.2 1017.1 0.0
22/03:30am 15.5 15.7 14.2 92 0.7 S 6 7 3 4 1017.2 - 0.0
22/03:00am 16.2 16.7 14.9 92 0.7 S 6 9 3 5 1017.4 1017.3 0.0
22/02:30am 16.7 17.1 15.4 92 0.8 S 7 9 4 5 1017.5 - 0.0
22/02:00am 17.2 17.5 15.9 92 0.8 SSW 9 11 5 6 1017.6 1017.5 0.0
22/01:30am 18.0 19.0 16.9 93 0.7 SSW 7 11 4 6 1017.7 - 0.0
22/01:00am 17.5 17.9 16.4 93 0.7 SW 9 13 5 7 1017.8 1017.7 0.0
22/12:30am 15.6 15.7 14.0 90 0.9 SW 6 7 3 4 1017.8 - 0.0
22/12:00am 14.8 14.4 12.3 85 1.4 NNE 6 7 3 4 1017.8 1017.7 0.0
 
Date/Time
EST
Temp
°C
App
Temp
°C
Dew
Point
Rel
Hum
%
Delta-T
°C
Wind Press
QNH
hPa
Press
MSL
hPa
Rain
since 9 am
mm
Dir
 
Spd
km/h
Gust
km/h
Spd
kts
Gust
kts
21/11:30pm 15.1 14.9 13.0 87 1.2 NNE 6 7 3 4 1018.0 - 0.0
21/11:00pm 15.3 14.8 12.2 82 1.7 NNE 6 6 3 3 1018.2 1018.1 0.0
21/10:30pm 16.6 16.9 14.6 88 1.1 NNE 6 7 3 4 1018.4 - 0.0
21/10:00pm 17.0 17.8 14.8 87 1.3 NE 4 7 2 4 1018.2 1018.1 0.0
21/09:30pm 17.4 18.0 15.2 87 1.3 NE 6 7 3 4 1018.1 - 0.0
21/09:00pm 17.8 18.2 15.4 86 1.4 NNE 7 9 4 5 1017.9 1017.8 0.0
21/08:30pm 18.1 18.5 15.2 83 1.7 NNE 7 11 4 6 1017.7 - 0.0
21/08:00pm 18.5 18.3 14.6 78 2.3 NE 9 11 5 6 1017.3 1017.2 0.0
21/07:30pm 18.8 18.1 13.2 70 3.2 NNE 9 13 5 7 1017.1 - 0.0
21/07:00pm 19.9 17.5 7.0 43 6.5 NNE 9 9 5 5 1016.5 1016.4 0.0
21/06:30pm 22.4 19.2 3.0 28 9.3 ENE 9 11 5 6 1016.2 - 0.0
21/06:00pm 24.5 20.3 3.8 26 10.2 ENE 15 20 8 11 1016.1 1016.0 0.0
21/05:30pm 25.6 21.0 3.5 24 10.9 E 17 22 9 12 1016.1 - 0.0
21/05:00pm 25.8 21.2 1.8 21 11.5 ESE 15 20 8 11 1016.1 1016.0 0.0
21/04:30pm 25.2 23.7 10.6 40 8.1 SSE 9 15 5 8 1016.3 - 0.0
21/04:00pm 26.3 21.3 1.6 20 11.8 SE 17 22 9 12 1016.2 1016.1 0.0
21/03:30pm 26.1 21.3 2.7 22 11.4 SE 17 24 9 13 1016.2 - 0.0
21/03:00pm 26.0 20.5 0.6 19 11.9 SE 19 26 10 14 1016.2 1016.1 0.0
21/02:30pm 25.6 20.5 4.1 25 10.7 SE 20 28 11 15 1016.4 - 0.0
21/02:00pm 25.4 20.4 4.5 26 10.5 SE 20 30 11 16 1016.8 1016.7 0.0
21/01:30pm 24.9 20.3 6.6 31 9.5 SE 20 30 11 16 1017.1 - 0.0
21/01:00pm 24.1 20.7 10.4 42 7.6 SE 19 28 10 15 1017.5 1017.4 0.0
21/12:30pm 24.5 19.7 7.2 33 9.1 SE 22 32 12 17 1017.8 - 0.0
21/12:00pm 23.1 19.8 10.9 46 6.8 SE 19 26 10 14 1018.2 1018.1 0.0
21/11:30am 22.1 19.3 11.5 51 5.9 SE 17 26 9 14 1018.5 - 0.0
21/11:00am 21.5 18.9 12.1 55 5.3 SE 17 28 9 15 1018.7 1018.7 0.0
21/10:30am 20.7 18.1 11.9 57 4.9 SE 17 26 9 14 1019.0 - 0.0
21/10:00am 19.9 16.7 11.9 60 4.4 SE 20 30 11 16 1019.0 1019.0 0.0
21/09:30am 20.0 18.0 13.9 68 3.5 SE 17 28 9 15 1019.2 - 0.0
21/09:00am 19.0 18.0 14.5 75 2.6 SSE 13 22 7 12 1019.0 1019.0 0.0
21/08:30am 18.2 18.2 15.1 82 1.8 SSE 9 17 5 9 1018.7 - 0.0
21/08:00am 16.9 16.9 15.1 89 1.0 SE 9 13 5 7 1018.4 1018.4 0.0
21/07:30am 16.0 15.8 14.7 92 0.7 SSE 9 11 5 6 1018.3 - 0.0
21/07:00am 15.2 15.0 13.7 91 0.8 SE 7 9 4 5 1017.9 1017.8 0.0
21/06:30am 15.7 15.8 14.4 92 0.7 SSE 7 11 4 6 1017.4 - 0.0
21/06:00am 15.6 15.6 14.3 92 0.7 S 7 9 4 5 1017.1 1017.0 0.0
21/05:30am 15.8 16.0 14.7 93 0.6 SSE 7 11 4 6 1016.8 - 0.0
21/05:00am 15.4 15.4 14.3 93 0.6 S 7 9 4 5 1016.7 1016.6 0.0
21/04:30am 14.5 14.2 13.2 92 0.7 S 7 9 4 5 1016.7 - 0.0
21/04:00am 13.6 13.0 12.2 91 0.8 S 7 9 4 5 1016.7 1016.6 0.0
21/03:30am 13.3 12.6 11.5 89 1.0 S 6 7 3 4 1016.7 - 0.0
21/03:00am 13.2 12.4 10.9 86 1.2 SSW 6 6 3 3 1016.8 1016.7 0.0
21/02:30am 13.1 13.3 10.6 85 1.3 CALM 0 0 0 0 1016.9 - 0.0
21/02:00am 13.7 13.4 11.6 87 1.1 SW 4 7 2 4 1017.1 1017.0 0.0
21/01:30am 14.0 13.5 11.9 87 1.1 SW 6 9 3 5 1017.2 - 0.0
21/01:00am 15.5 15.7 14.2 92 0.7 SW 6 9 3 5 1017.2 1017.1 0.0
21/12:30am 14.4 14.0 12.4 88 1.1 E 6 7 3 4 1017.4 - 0.0
21/12:00am 15.0 14.6 13.0 88 1.1 E 7 7 4 4 1017.5 1017.4 0.0
 
Date/Time
EST
Temp
°C
App
Temp
°C
Dew
Point
Rel
Hum
%
Delta-T
°C
Wind Press
QNH
hPa
Press
MSL
hPa
Rain
since 9 am
mm
Dir
 
Spd
km/h
Gust
km/h
Spd
kts
Gust
kts
20/11:30pm 15.1 14.7 13.1 88 1.1 E 7 9 4 5 1017.6 - 0.0
20/11:00pm 15.8 15.8 14.2 90 0.9 ESE 7 9 4 5 1017.8 1017.7 0.0
20/10:30pm 15.5 15.3 13.7 89 1.0 E 7 9 4 5 1017.7 - 0.0
20/10:00pm 15.4 15.1 13.2 87 1.2 E 7 9 4 5 1017.8 1017.7 0.0
20/09:30pm 15.8 15.6 13.5 86 1.3 E 7 9 4 5 1017.7 - 0.0
20/09:00pm 16.1 15.9 13.6 85 1.4 E 7 9 4 5 1017.7 1017.6 0.0
20/08:30pm 16.7 16.5 13.6 82 1.7 E 7 11 4 6 1017.6 - 0.0
20/08:00pm 17.1 16.8 13.4 79 2.1 E 7 11 4 6 1017.5 1017.4 0.0
20/07:30pm 18.0 17.5 13.9 77 2.3 ESE 9 13 5 7 1017.2 - 0.0
20/07:00pm 19.0 17.7 13.8 72 3.0 E 13 15 7 8 1016.7 1016.6 0.0
20/06:30pm 19.3 18.5 14.1 72 3.0 ESE 11 15 6 8 1016.5 - 0.0
20/06:00pm 19.8 18.7 14.2 70 3.2 SE 13 17 7 9 1016.2 1016.1 0.0
20/05:30pm 20.4 19.1 13.6 65 3.9 SE 13 19 7 10 1015.9 - 0.0
20/05:00pm 20.6 19.0 12.8 61 4.4 SSE 13 20 7 11 1015.8 1015.7 0.0
20/04:30pm 20.6 18.8 12.1 58 4.8 SSE 13 20 7 11 1015.6 - 0.0
20/04:00pm 21.4 19.7 12.3 56 5.1 SSE 13 20 7 11 1015.5 1015.4 0.0
20/03:30pm 21.4 19.1 11.7 54 5.4 SSE 15 20 8 11 1015.4 - 0.0
20/03:00pm 21.3 18.8 11.1 52 5.6 SSE 15 20 8 11 1015.6 1015.5 0.0
20/02:30pm 21.1 18.5 10.6 51 5.7 SSE 15 20 8 11 1016.0 - 0.0
20/02:00pm 21.4 18.7 10.3 49 6.0 SSE 15 24 8 13 1016.6 1016.5 0.0
20/01:30pm 21.2 18.5 10.4 50 5.9 SSE 15 22 8 12 1017.1 - 0.0
20/01:00pm 21.4 18.5 9.6 47 6.3 SSE 15 24 8 13 1017.5 1017.4 0.0
20/12:30pm 21.7 18.7 9.3 45 6.6 SSE 15 22 8 12 1018.0 - 0.0
20/12:00pm 21.3 18.2 8.9 45 6.6 SSE 15 24 8 13 1018.4 1018.4 0.0
20/11:30am 21.8 18.7 9.0 44 6.8 SSE 15 20 8 11 1018.8 - 0.0
20/11:00am 21.2 17.2 8.1 43 6.8 SE 19 26 10 14 1019.0 1019.0 0.0
20/10:30am 20.9 16.9 8.2 44 6.6 SE 19 24 10 13 1018.9 - 0.0
20/10:00am 20.0 16.2 7.7 45 6.3 SE 17 32 9 17 1019.2 1019.2 0.0

Other Formats:

Comma delimited format used in spreadsheet applications
http://www.bom.gov.au/fwo/IDQ60801/IDQ60801.94254.axf

JavaScript Object Notation format (JSON) in row-major order
http://www.bom.gov.au/fwo/IDQ60801/IDQ60801.94254.json